| time (UTC) | temp F | wind direction | speed knots | gust knots | rain 1hr in | rain 24hr in | rain mn in | humidity % | barometer mb |
| 20260505153040 | 74 | 168 | 1.7 | 8.7 | 0.00 | 0.00 | 0.00 | 60 | 1017.8 |
| 20260505152511 | 74 | 168 | 1.7 | 8.7 | 0.00 | 0.00 | 0.00 | 60 | 1017.9 |
| 20260505152011 | 75 | 159 | 2.6 | 7.8 | 0.00 | 0.00 | 0.00 | 57 | 1017.8 |
| 20260505151531 | 75 | 190 | 0.9 | 3.5 | 0.00 | 0.00 | 0.00 | 60 | 1017.8 |
| 20260505151009 | 74 | 0 | 0.9 | 7.0 | 0.00 | 0.00 | 0.00 | 61 | 1017.9 |
| 20260505150514 | 74 | 197 | 1.7 | 7.0 | 0.00 | 0.00 | 0.00 | 60 | 1017.9 |
| 20260505140513 | 71 | 0 | 1.7 | 7.8 | 0.00 | 0.00 | 0.00 | 64 | 1017.8 |
| 20260505125014 | 65 | 179 | 0.0 | 2.6 | 0.00 | 0.00 | 0.00 | 74 | 1017.9 |
| 20260505124532 | 64 | 0 | 0.0 | 4.3 | 0.00 | 0.00 | 0.00 | 76 | 1017.8 |
| 20260505124009 | 63 | 0 | 0.9 | 5.2 | 0.00 | 0.00 | 0.00 | 80 | 1017.9 |
| 20260505123514 | 61 | 0 | 0.9 | 5.2 | 0.00 | 0.00 | 0.00 | 82 | 1017.8 |
| 20260505123045 | 60 | 0 | 0.0 | 3.5 | 0.00 | 0.00 | 0.00 | 84 | 1017.9 |
| 20260505122511 | 59 | 209 | 0.0 | 2.6 | 0.00 | 0.00 | 0.00 | 86 | 1017.9 |
| 20260505122013 | 58 | 0 | 0.0 | 0.9 | 0.00 | 0.00 | 0.00 | 88 | 1017.9 |
| 20260505121529 | 57 | 0 | 0.0 | 1.7 | 0.00 | 0.00 | 0.00 | 89 | 1017.8 |
| 20260505121011 | 56 | 0 | 0.0 | 3.5 | 0.00 | 0.00 | 0.00 | 89 | 1017.8 |
| 20260505120509 | 55 | 188 | 0.0 | 3.5 | 0.00 | 0.00 | 0.00 | 89 | 1017.8 |
| 20260505120037 | 55 | 171 | 0.0 | 1.7 | 0.00 | 0.00 | 0.00 | 89 | 1017.8 |
| 20260505115510 | 54 | 0 | 0.0 | 0.9 | 0.00 | 0.00 | 0.00 | 90 | 1017.8 |
| 20260505115008 | 53 | 0 | 0.0 | 0.0 | 0.00 | 0.00 | 0.00 | 89 | 1018.0 |
| 20260505114531 | 53 | 0 | 0.0 | 0.0 | 0.00 | 0.00 | 0.00 | 88 | 1017.7 |
| 20260505114012 | 52 | 0 | 0.0 | 0.9 | 0.00 | 0.00 | 0.00 | 88 | 1017.7 |
| 20260505113513 | 52 | 0 | 0.0 | 1.7 | 0.00 | 0.00 | 0.00 | 88 | 1017.7 |
| 20260505113030 | 51 | 0 | 0.0 | 1.7 | 0.00 | 0.00 | 0.00 | 87 | 1017.6 |
| 20260505112512 | 51 | 0 | 0.0 | 1.7 | 0.00 | 0.00 | 0.00 | 87 | 1017.5 |
| 20260505112011 | 51 | 0 | 0.0 | 1.7 | 0.00 | 0.00 | 0.00 | 87 | 1017.5 |
| 20260505111535 | 51 | 0 | 0.0 | 0.9 | 0.00 | 0.00 | 0.00 | 86 | 1017.5 |
| 20260505111011 | 51 | 0 | 0.0 | 0.0 | 0.00 | 0.00 | 0.00 | 86 | 1017.4 |
| 20260505110512 | 51 | 0 | 0.0 | 0.0 | 0.00 | 0.00 | 0.00 | 86 | 1017.4 |
| 20260505102012 | 51 | 0 | 0.0 | 0.0 | 0.00 | 0.00 | 0.00 | 84 | 1016.8 |
| 20260505101528 | 51 | 0 | 0.0 | 0.0 | 0.00 | 0.00 | 0.00 | 84 | 1016.8 |
| 20260505101011 | 52 | 0 | 0.0 | 0.0 | 0.00 | 0.00 | 0.00 | 84 | 1016.7 |
| 20260505100512 | 52 | 0 | 0.0 | 0.0 | 0.00 | 0.00 | 0.00 | 84 | 1016.6 |
| 20260505100032 | 52 | 0 | 0.0 | 0.0 | 0.00 | 0.00 | 0.00 | 83 | 1016.6 |
| 20260505095512 | 52 | 0 | 0.0 | 0.0 | 0.00 | 0.00 | 0.00 | 83 | 1016.6 |
| 20260505095016 | 52 | 0 | 0.0 | 0.0 | 0.00 | 0.00 | 0.00 | 83 | 1016.6 |
| 20260505094532 | 52 | 0 | 0.0 | 0.0 | 0.00 | 0.00 | 0.00 | 82 | 1016.5 |
| 20260505094008 | 52 | 0 | 0.0 | 0.0 | 0.00 | 0.00 | 0.00 | 82 | 1016.5 |
| 20260505093511 | 52 | 0 | 0.0 | 0.0 | 0.00 | 0.00 | 0.00 | 82 | 1016.6 |
| 20260505093031 | 52 | 0 | 0.0 | 0.0 | 0.00 | 0.00 | 0.00 | 82 | 1016.5 |
| 20260505092511 | 52 | 0 | 0.0 | 0.0 | 0.00 | 0.00 | 0.00 | 81 | 1016.5 |
| 20260505092011 | 53 | 0 | 0.0 | 0.0 | 0.00 | 0.00 | 0.00 | 81 | 1016.5 |
| 20260505091528 | 53 | 0 | 0.0 | 0.0 | 0.00 | 0.00 | 0.00 | 81 | 1016.4 |
| 20260505091010 | 53 | 0 | 0.0 | 0.0 | 0.00 | 0.00 | 0.00 | 81 | 1016.4 |
| 20260505090509 | 53 | 0 | 0.0 | 0.0 | 0.00 | 0.00 | 0.00 | 81 | 1016.5 |
| 20260505090028 | 53 | 0 | 0.0 | 0.0 | 0.00 | 0.00 | 0.00 | 81 | 1016.5 |
| 20260505085511 | 53 | 0 | 0.0 | 0.0 | 0.00 | 0.00 | 0.00 | 80 | 1016.4 |
| 20260505085011 | 54 | 0 | 0.0 | 0.0 | 0.00 | 0.00 | 0.00 | 80 | 1016.4 |
| 20260505084531 | 54 | 0 | 0.0 | 0.0 | 0.00 | 0.00 | 0.00 | 80 | 1016.3 |
| 20260505084011 | 54 | 0 | 0.0 | 0.0 | 0.00 | 0.00 | 0.00 | 79 | 1016.3 |
| 20260505083514 | 54 | 0 | 0.0 | 0.0 | 0.00 | 0.00 | 0.00 | 79 | 1016.2 |
| 20260505083032 | 54 | 0 | 0.0 | 0.0 | 0.00 | 0.00 | 0.00 | 79 | 1016.3 |
| 20260505082515 | 54 | 0 | 0.0 | 0.0 | 0.00 | 0.00 | 0.00 | 79 | 1016.4 |
| 20260505082012 | 55 | 0 | 0.0 | 0.0 | 0.00 | 0.00 | 0.00 | 78 | 1016.3 |
| 20260505081532 | 55 | 0 | 0.0 | 0.0 | 0.00 | 0.00 | 0.00 | 78 | 1016.2 |
| 20260505081013 | 55 | 0 | 0.0 | 0.0 | 0.00 | 0.00 | 0.00 | 78 | 1016.2 |
| 20260505080517 | 55 | 0 | 0.0 | 0.0 | 0.00 | 0.00 | 0.00 | 78 | 1016.1 |
| 20260505080029 | 55 | 0 | 0.0 | 0.0 | 0.00 | 0.00 | 0.00 | 77 | 1016.1 |
| 20260505075513 | 56 | 0 | 0.0 | 0.0 | 0.00 | 0.00 | 0.00 | 77 | 1016.1 |
| 20260505075013 | 56 | 0 | 0.0 | 0.0 | 0.00 | 0.00 | 0.00 | 76 | 1016.0 |
| 20260505074534 | 56 | 0 | 0.0 | 0.0 | 0.00 | 0.00 | 0.00 | 76 | 1015.9 |
| 20260505074011 | 56 | 0 | 0.0 | 0.0 | 0.00 | 0.00 | 0.00 | 76 | 1016.0 |
| 20260505073514 | 56 | 0 | 0.0 | 0.0 | 0.00 | 0.00 | 0.00 | 75 | 1016.0 |
| 20260505073030 | 57 | 0 | 0.0 | 0.0 | 0.00 | 0.00 | 0.00 | 75 | 1015.9 |
| 20260505072511 | 57 | 0 | 0.0 | 0.0 | 0.00 | 0.00 | 0.00 | 74 | 1016.0 |
| 20260505072011 | 57 | 0 | 0.0 | 0.0 | 0.00 | 0.00 | 0.00 | 75 | 1016.0 |
| 20260505071532 | 57 | 0 | 0.0 | 0.0 | 0.00 | 0.00 | 0.00 | 74 | 1015.9 |
| 20260505071010 | 57 | 0 | 0.0 | 0.0 | 0.00 | 0.00 | 0.00 | 74 | 1015.9 |
| 20260505070512 | 58 | 0 | 0.0 | 0.0 | 0.00 | 0.00 | 0.00 | 74 | 1016.0 |
| 20260505070030 | 58 | 0 | 0.0 | 0.0 | 0.00 | 0.00 | 0.00 | 74 | 1016.0 |
| 20260505065512 | 58 | 0 | 0.0 | 0.0 | 0.00 | 0.00 | 0.00 | 74 | 1016.0 |
| 20260505065012 | 58 | 0 | 0.0 | 0.0 | 0.00 | 0.00 | 0.00 | 73 | 1015.9 |
| 20260505064534 | 59 | 0 | 0.0 | 2.6 | 0.00 | 0.00 | 0.00 | 74 | 1016.0 |
| 20260505064012 | 59 | 0 | 0.0 | 2.6 | 0.00 | 0.00 | 0.00 | 73 | 1016.0 |
| 20260505063511 | 59 | 0 | 0.0 | 2.6 | 0.00 | 0.00 | 0.00 | 73 | 1015.9 |
| 20260505063029 | 59 | 0 | 0.0 | 2.6 | 0.00 | 0.00 | 0.00 | 73 | 1015.9 |
| 20260505062511 | 59 | 0 | 0.0 | 4.3 | 0.00 | 0.00 | 0.00 | 73 | 1016.0 |
| 20260505062014 | 59 | 0 | 0.0 | 4.3 | 0.00 | 0.00 | 0.00 | 72 | 1015.9 |
| 20260505061532 | 60 | 151 | 0.9 | 4.3 | 0.00 | 0.00 | 0.00 | 72 | 1015.9 |
| 20260505061012 | 60 | 0 | 0.9 | 3.5 | 0.00 | 0.00 | 0.00 | 72 | 1016.0 |
| 20260505060511 | 60 | 0 | 0.9 | 3.5 | 0.00 | 0.00 | 0.00 | 72 | 1016.0 |
| 20260505060030 | 60 | 187 | 0.9 | 5.2 | 0.00 | 0.00 | 0.00 | 72 | 1015.9 |
| 20260505055512 | 60 | 177 | 0.9 | 5.2 | 0.00 | 0.00 | 0.00 | 71 | 1016.0 |
| 20260505055015 | 60 | 167 | 0.0 | 3.5 | 0.00 | 0.00 | 0.00 | 71 | 1016.0 |
| 20260505054544 | 60 | 184 | 0.9 | 4.3 | 0.00 | 0.00 | 0.00 | 71 | 1016.0 |
| 20260505054016 | 60 | 192 | 0.0 | 5.2 | 0.00 | 0.00 | 0.00 | 71 | 1016.0 |
| 20260505053518 | 60 | 167 | 1.7 | 5.2 | 0.00 | 0.00 | 0.00 | 71 | 1016.1 |
| 20260505053029 | 61 | 176 | 0.9 | 4.3 | 0.00 | 0.00 | 0.00 | 71 | 1016.1 |
| 20260505052510 | 61 | 221 | 0.0 | 5.2 | 0.00 | 0.00 | 0.00 | 70 | 1016.2 |
| 20260505052030 | 61 | 178 | 1.7 | 5.2 | 0.00 | 0.00 | 0.00 | 70 | 1016.3 |
| 20260505051532 | 61 | 0 | 0.9 | 4.3 | 0.00 | 0.00 | 0.00 | 70 | 1016.3 |
| 20260505051011 | 61 | 188 | 0.9 | 6.1 | 0.00 | 0.00 | 0.00 | 70 | 1016.3 |
| 20260505050513 | 61 | 0 | 0.9 | 6.1 | 0.00 | 0.00 | 0.00 | 70 | 1016.3 |
| 20260505041532 | 63 | 183 | 0.9 | 9.6 | 0.00 | 0.00 | 0.00 | 68 | 1016.2 |
| 20260505041012 | 63 | 186 | 2.6 | 9.6 | 0.00 | 0.00 | 0.00 | 68 | 1016.2 |
| 20260505040509 | 63 | 184 | 2.6 | 7.0 | 0.00 | 0.00 | 0.00 | 67 | 1016.2 |
| 20260505040031 | 63 | 165 | 2.6 | 7.0 | 0.00 | 0.00 | 0.00 | 67 | 1016.3 |
| 20260505035513 | 63 | 154 | 3.5 | 8.7 | 0.00 | 0.00 | 0.00 | 67 | 1016.3 |
| 20260505035009 | 63 | 201 | 2.6 | 8.7 | 0.00 | 0.00 | 0.00 | 67 | 1016.2 |
| 20260505034535 | 64 | 173 | 2.6 | 8.7 | 0.00 | 0.00 | 0.00 | 67 | 1016.2 |
| 20260505034013 | 64 | 196 | 3.5 | 8.7 | 0.00 | 0.00 | 0.00 | 66 | 1016.1 |
| 20260505033512 | 64 | 163 | 3.5 | 7.8 | 0.00 | 0.00 | 0.00 | 66 | 1016.2 |
| 20260505033032 | 64 | 180 | 3.5 | 8.7 | 0.00 | 0.00 | 0.00 | 66 | 1016.1 |
| 20260505032514 | 64 | 183 | 2.6 | 10.4 | 0.00 | 0.00 | 0.00 | 66 | 1016.2 |
| 20260505032012 | 64 | 159 | 3.5 | 11.3 | 0.00 | 0.00 | 0.00 | 66 | 1016.1 |
| 20260505031530 | 65 | 150 | 4.3 | 11.3 | 0.00 | 0.00 | 0.00 | 65 | 1016.1 |
| 20260505031011 | 65 | 44 | 2.6 | 9.6 | 0.00 | 0.00 | 0.00 | 65 | 1016.1 |
| 20260505030513 | 65 | 168 | 2.6 | 9.6 | 0.00 | 0.00 | 0.00 | 65 | 1016.2 |
| 20260505030044 | 65 | 192 | 3.5 | 9.6 | 0.00 | 0.00 | 0.00 | 65 | 1016.2 |
| 20260505025515 | 65 | 188 | 4.3 | 13.0 | 0.00 | 0.00 | 0.00 | 65 | 1016.1 |
| 20260505025009 | 66 | 200 | 4.3 | 13.0 | 0.00 | 0.00 | 0.00 | 64 | 1016.1 |
| 20260505024531 | 66 | 196 | 3.5 | 10.4 | 0.00 | 0.00 | 0.00 | 64 | 1016.0 |
| 20260505024011 | 66 | 101 | 4.3 | 10.4 | 0.00 | 0.00 | 0.00 | 64 | 1016.1 |
| 20260505023512 | 66 | 166 | 3.5 | 12.2 | 0.00 | 0.00 | 0.00 | 64 | 1016.0 |
| 20260505023039 | 66 | 185 | 5.2 | 12.2 | 0.00 | 0.00 | 0.00 | 64 | 1016.0 |
| 20260505022513 | 67 | 172 | 3.5 | 11.3 | 0.00 | 0.00 | 0.00 | 63 | 1016.0 |
| 20260505022014 | 67 | 172 | 3.5 | 16.5 | 0.00 | 0.00 | 0.00 | 63 | 1015.9 |
| 20260505021531 | 67 | 188 | 5.2 | 16.5 | 0.00 | 0.00 | 0.00 | 63 | 1016.0 |
| 20260505021010 | 67 | 153 | 3.5 | 9.6 | 0.00 | 0.00 | 0.00 | 63 | 1015.8 |
| 20260505020511 | 67 | 186 | 4.3 | 9.6 | 0.00 | 0.00 | 0.00 | 62 | 1015.9 |
| 20260505020030 | 67 | 176 | 4.3 | 10.4 | 0.00 | 0.00 | 0.00 | 61 | 1015.8 |
| 20260505015513 | 68 | 178 | 5.2 | 12.2 | 0.00 | 0.00 | 0.00 | 60 | 1015.8 |
| 20260505015017 | 68 | 260 | 3.5 | 12.2 | 0.00 | 0.00 | 0.00 | 59 | 1015.8 |
| 20260505014536 | 68 | 165 | 4.3 | 10.4 | 0.00 | 0.00 | 0.00 | 57 | 1015.7 |
| 20260505014011 | 68 | 169 | 3.5 | 10.4 | 0.00 | 0.00 | 0.00 | 55 | 1015.7 |
| 20260505013511 | 68 | 150 | 3.5 | 9.6 | 0.00 | 0.00 | 0.00 | 53 | 1015.6 |
| 20260505013038 | 69 | 186 | 3.5 | 10.4 | 0.00 | 0.00 | 0.00 | 52 | 1015.5 |
| 20260505012513 | 69 | 186 | 4.3 | 10.4 | 0.00 | 0.00 | 0.00 | 49 | 1015.3 |
| 20260505012013 | 69 | 182 | 2.6 | 7.0 | 0.00 | 0.00 | 0.00 | 48 | 1015.2 |
| 20260505011532 | 69 | 170 | 2.6 | 7.0 | 0.00 | 0.00 | 0.00 | 48 | 1015.0 |
| 20260505011010 | 69 | 167 | 1.7 | 7.0 | 0.00 | 0.00 | 0.00 | 48 | 1015.0 |
| 20260505010509 | 69 | 177 | 0.9 | 7.0 | 0.00 | 0.00 | 0.00 | 48 | 1014.9 |
| 20260505010029 | 70 | 171 | 1.7 | 8.7 | 0.00 | 0.00 | 0.00 | 47 | 1014.8 |
| 20260505005516 | 70 | 185 | 2.6 | 8.7 | 0.00 | 0.00 | 0.00 | 47 | 1014.7 |
| 20260505005013 | 70 | 179 | 2.6 | 7.8 | 0.00 | 0.00 | 0.00 | 46 | 1014.6 |
| 20260505004553 | 70 | 168 | 2.6 | 7.8 | 0.00 | 0.00 | 0.00 | 46 | 1014.5 |
| 20260505004011 | 70 | 167 | 2.6 | 8.7 | 0.00 | 0.00 | 0.00 | 46 | 1014.5 |
| 20260505003512 | 71 | 194 | 2.6 | 8.7 | 0.00 | 0.00 | 0.00 | 46 | 1014.5 |
| 20260505003032 | 71 | 167 | 1.7 | 7.0 | 0.00 | 0.00 | 0.00 | 45 | 1014.5 |
| 20260505002511 | 71 | 152 | 2.6 | 6.1 | 0.00 | 0.00 | 0.00 | 45 | 1014.4 |
| 20260505002009 | 71 | 173 | 1.7 | 5.2 | 0.00 | 0.00 | 0.00 | 44 | 1014.4 |
| 20260505001535 | 72 | 202 | 1.7 | 5.2 | 0.00 | 0.00 | 0.00 | 44 | 1014.4 |
| 20260505001010 | 72 | 0 | 0.9 | 6.1 | 0.00 | 0.00 | 0.00 | 44 | 1014.4 |
| 20260505000516 | 72 | 194 | 1.7 | 6.1 | 0.00 | 0.00 | 0.00 | 43 | 1014.4 |
| 20260505000036 | 73 | 178 | 2.6 | 7.0 | 0.00 | 0.00 | 0.00 | 43 | 1014.4 |
| 20260504235510 | 73 | 191 | 1.7 | 7.0 | 0.00 | 0.00 | 0.00 | 42 | 1014.3 |
| 20260504235010 | 73 | 161 | 1.7 | 6.1 | 0.00 | 0.00 | 0.00 | 42 | 1014.4 |
| 20260504234531 | 73 | 184 | 1.7 | 9.6 | 0.00 | 0.00 | 0.00 | 42 | 1014.2 |
| 20260504234009 | 74 | 161 | 2.6 | 9.6 | 0.00 | 0.00 | 0.00 | 42 | 1014.0 |
| 20260504233511 | 74 | 211 | 3.5 | 9.6 | 0.00 | 0.00 | 0.00 | 41 | 1014.0 |
| 20260504233032 | 74 | 182 | 1.7 | 7.0 | 0.00 | 0.00 | 0.00 | 41 | 1013.9 |
| 20260504232512 | 74 | 194 | 1.7 | 8.7 | 0.00 | 0.00 | 0.00 | 40 | 1014.0 |
| 20260504232015 | 75 | 191 | 0.9 | 8.7 | 0.00 | 0.00 | 0.00 | 41 | 1014.0 |
| 20260504231530 | 75 | 182 | 0.9 | 9.6 | 0.00 | 0.00 | 0.00 | 40 | 1013.9 |
| 20260504231011 | 75 | 188 | 3.5 | 9.6 | 0.00 | 0.00 | 0.00 | 40 | 1013.9 |
| 20260504230513 | 75 | 188 | 3.5 | 8.7 | 0.00 | 0.00 | 0.00 | 39 | 1013.8 |
| 20260504230030 | 76 | 198 | 0.9 | 9.6 | 0.00 | 0.00 | 0.00 | 39 | 1013.7 |
| 20260504225511 | 76 | 148 | 3.5 | 9.6 | 0.00 | 0.00 | 0.00 | 38 | 1013.8 |
| 20260504225011 | 76 | 170 | 2.6 | 9.6 | 0.00 | 0.00 | 0.00 | 37 | 1013.8 |
| 20260504224534 | 76 | 199 | 3.5 | 9.6 | 0.00 | 0.00 | 0.00 | 37 | 1013.7 |
| 20260504224011 | 76 | 175 | 0.0 | 6.1 | 0.00 | 0.00 | 0.00 | 38 | 1013.7 |
| 20260504223512 | 76 | 211 | 2.6 | 12.2 | 0.00 | 0.00 | 0.00 | 37 | 1013.7 |
| 20260504223031 | 77 | 156 | 3.5 | 12.2 | 0.00 | 0.00 | 0.00 | 37 | 1013.8 |
| 20260504222509 | 77 | 196 | 2.6 | 11.3 | 0.00 | 0.00 | 0.00 | 37 | 1013.7 |
| 20260504222017 | 77 | 218 | 0.9 | 3.5 | 0.00 | 0.00 | 0.00 | 37 | 1013.7 |
| 20260504221537 | 77 | 0 | 0.9 | 5.2 | 0.00 | 0.00 | 0.00 | 40 | 1013.6 |
| 20260504221010 | 77 | 0 | 0.0 | 7.0 | 0.00 | 0.00 | 0.00 | 39 | 1013.7 |
| 20260504220515 | 78 | 0 | 2.6 | 7.0 | 0.00 | 0.00 | 0.00 | 35 | 1013.8 |
| 20260504220030 | 78 | 156 | 1.7 | 6.1 | 0.00 | 0.00 | 0.00 | 35 | 1013.7 |
| 20260504215510 | 78 | 185 | 0.9 | 3.5 | 0.00 | 0.00 | 0.00 | 37 | 1013.8 |
| 20260504215015 | 78 | 0 | 0.0 | 3.5 | 0.00 | 0.00 | 0.00 | 36 | 1013.8 |
| 20260504214531 | 78 | 284 | 0.0 | 6.1 | 0.00 | 0.00 | 0.00 | 36 | 1013.9 |
| 20260504214012 | 78 | 0 | 0.0 | 6.1 | 0.00 | 0.00 | 0.00 | 35 | 1013.9 |
| 20260504213514 | 78 | 0 | 0.0 | 7.0 | 0.00 | 0.00 | 0.00 | 33 | 1013.9 |
| 20260504213038 | 78 | 126 | 1.7 | 7.0 | 0.00 | 0.00 | 0.00 | 33 | 1014.1 |
| 20260504212515 | 78 | 186 | 0.9 | 7.0 | 0.00 | 0.00 | 0.00 | 33 | 1013.9 |
| 20260504212013 | 79 | 208 | 1.7 | 7.0 | 0.00 | 0.00 | 0.00 | 33 | 1014.0 |
| 20260504211535 | 79 | 0 | 0.9 | 7.0 | 0.00 | 0.00 | 0.00 | 33 | 1013.9 |
| 20260504211010 | 79 | 234 | 2.6 | 7.8 | 0.00 | 0.00 | 0.00 | 32 | 1013.9 |
| 20260504210512 | 79 | 355 | 1.7 | 12.2 | 0.00 | 0.00 | 0.00 | 32 | 1014.0 |
| 20260504210030 | 79 | 173 | 3.5 | 12.2 | 0.00 | 0.00 | 0.00 | 30 | 1014.1 |
| 20260504205510 | 80 | 291 | 2.6 | 7.0 | 0.00 | 0.00 | 0.00 | 33 | 1014.0 |
| 20260504205015 | 80 | 0 | 0.0 | 7.0 | 0.00 | 0.00 | 0.00 | 33 | 1014.1 |
| 20260504204535 | 79 | 0 | 0.9 | 5.2 | 0.00 | 0.00 | 0.00 | 33 | 1014.1 |
| 20260504204013 | 80 | 0 | 0.9 | 7.8 | 0.00 | 0.00 | 0.00 | 33 | 1014.2 |
| 20260504203512 | 80 | 0 | 1.7 | 7.8 | 0.00 | 0.00 | 0.00 | 33 | 1014.2 |
| 20260504203033 | 79 | 256 | 0.0 | 7.8 | 0.00 | 0.00 | 0.00 | 32 | 1014.2 |
| 20260504202512 | 79 | 224 | 2.6 | 7.8 | 0.00 | 0.00 | 0.00 | 33 | 1014.2 |
| 20260504202013 | 79 | 171 | 0.9 | 6.1 | 0.00 | 0.00 | 0.00 | 32 | 1014.3 |
| 20260504201530 | 79 | 192 | 2.6 | 6.1 | 0.00 | 0.00 | 0.00 | 32 | 1014.4 |
| 20260504201011 | 80 | 279 | 0.0 | 8.7 | 0.00 | 0.00 | 0.00 | 33 | 1014.4 |
| 20260504200513 | 79 | 0 | 1.7 | 8.7 | 0.00 | 0.00 | 0.00 | 33 | 1014.6 |
| 20260504200030 | 79 | 146 | 2.6 | 7.8 | 0.00 | 0.00 | 0.00 | 34 | 1014.6 |
| 20260504195510 | 80 | 0 | 0.9 | 6.1 | 0.00 | 0.00 | 0.00 | 34 | 1014.6 |
| 20260504195015 | 79 | 173 | 0.9 | 6.1 | 0.00 | 0.00 | 0.00 | 33 | 1014.6 |
| 20260504194530 | 80 | 233 | 1.7 | 7.8 | 0.00 | 0.00 | 0.00 | 33 | 1014.7 |
| 20260504194010 | 80 | 0 | 0.9 | 7.8 | 0.00 | 0.00 | 0.00 | 36 | 1014.7 |
| 20260504193510 | 80 | 175 | 0.9 | 7.0 | 0.00 | 0.00 | 0.00 | 35 | 1014.7 |
| 20260504193030 | 79 | 248 | 1.7 | 7.0 | 0.00 | 0.00 | 0.00 | 35 | 1014.7 |
| 20260504192513 | 79 | 151 | 2.6 | 7.0 | 0.00 | 0.00 | 0.00 | 33 | 1014.9 |
| 20260504192018 | 79 | 290 | 1.7 | 7.8 | 0.00 | 0.00 | 0.00 | 36 | 1015.0 |
| 20260504191557 | 79 | 166 | 2.6 | 7.8 | 0.00 | 0.00 | 0.00 | 33 | 1014.9 |
| 20260504191009 | 80 | 148 | 0.0 | 6.1 | 0.00 | 0.00 | 0.00 | 35 | 1015.0 |
| 20260504190511 | 79 | 0 | 0.0 | 6.1 | 0.00 | 0.00 | 0.00 | 35 | 1015.1 |
| 20260504190029 | 78 | 165 | 0.9 | 4.3 | 0.00 | 0.00 | 0.00 | 36 | 1015.3 |
| 20260504185512 | 79 | 202 | 0.0 | 7.8 | 0.00 | 0.00 | 0.00 | 35 | 1015.2 |
| 20260504185009 | 79 | 209 | 2.6 | 7.8 | 0.00 | 0.00 | 0.00 | 34 | 1015.4 |
| 20260504184541 | 79 | 232 | 0.0 | 7.0 | 0.00 | 0.00 | 0.00 | 36 | 1015.4 |
| 20260504184013 | 79 | 0 | 1.7 | 8.7 | 0.00 | 0.00 | 0.00 | 36 | 1015.3 |
| 20260504183514 | 78 | 153 | 1.7 | 8.7 | 0.00 | 0.00 | 0.00 | 35 | 1015.3 |
| 20260504183032 | 78 | 183 | 3.5 | 7.8 | 0.00 | 0.00 | 0.00 | 35 | 1015.3 |
| 20260504182514 | 78 | 111 | 1.7 | 7.0 | 0.00 | 0.00 | 0.00 | 35 | 1015.4 |
| 20260504182015 | 79 | 173 | 1.7 | 6.1 | 0.00 | 0.00 | 0.00 | 35 | 1015.4 |
| 20260504181533 | 80 | 210 | 0.0 | 3.5 | 0.00 | 0.00 | 0.00 | 37 | 1015.5 |
| 20260504181010 | 79 | 117 | 0.9 | 8.7 | 0.00 | 0.00 | 0.00 | 35 | 1015.4 |
| 20260504180515 | 79 | 309 | 0.0 | 8.7 | 0.00 | 0.00 | 0.00 | 35 | 1015.5 |
| 20260504180035 | 78 | 22 | 1.7 | 8.7 | 0.00 | 0.00 | 0.00 | 35 | 1015.6 |
| 20260504175513 | 77 | 0 | 0.9 | 7.8 | 0.00 | 0.00 | 0.00 | 35 | 1015.6 |
| 20260504175019 | 78 | 0 | 2.6 | 7.8 | 0.00 | 0.00 | 0.00 | 36 | 1015.6 |
| 20260504174530 | 78 | 0 | 0.9 | 5.2 | 0.00 | 0.00 | 0.00 | 36 | 1015.7 |
| 20260504174009 | 79 | 181 | 0.0 | 2.6 | 0.00 | 0.00 | 0.00 | 36 | 1015.8 |
| 20260504173508 | 78 | 256 | 0.0 | 4.3 | 0.00 | 0.00 | 0.00 | 37 | 1016.0 |
| 20260504173030 | 77 | 0 | 0.0 | 6.1 | 0.00 | 0.00 | 0.00 | 37 | 1016.0 |
| 20260504172508 | 78 | 285 | 0.9 | 6.1 | 0.00 | 0.00 | 0.00 | 37 | 1016.1 |
| 20260504172016 | 78 | 245 | 0.9 | 5.2 | 0.00 | 0.00 | 0.00 | 36 | 1016.2 |
| 20260504171530 | 77 | 0 | 1.7 | 7.0 | 0.00 | 0.00 | 0.00 | 39 | 1016.2 |
| 20260504171011 | 76 | 96 | 0.9 | 7.0 | 0.00 | 0.00 | 0.00 | 38 | 1016.2 |
| 20260504170515 | 77 | 126 | 0.9 | 4.3 | 0.00 | 0.00 | 0.00 | 39 | 1016.3 |